createdAt,value
2023-11-08T00:00:40.845Z,100508.97
2023-11-08T00:03:10.084Z,100515.88
2023-11-08T00:05:45.197Z,100483.50
2023-11-08T00:08:11.672Z,100509.75
2023-11-08T00:10:47.729Z,100529.13
2023-11-08T00:13:14.114Z,100520.84
2023-11-08T00:15:40.588Z,100522.44
2023-11-08T00:18:10.097Z,100536.50
2023-11-08T00:20:36.575Z,100518.44
2023-11-08T00:23:03.012Z,100522.72
2023-11-08T00:25:29.413Z,100541.75
2023-11-08T00:27:55.929Z,100573.72
2023-11-08T00:30:44.640Z,100586.91
2023-11-08T00:33:12.768Z,100535.28
2023-11-08T00:35:40.787Z,100513.69
2023-11-08T00:38:16.624Z,100501.84
2023-11-08T00:40:43.123Z,100563.41
2023-11-08T00:43:14.355Z,100530.06
2023-11-08T00:45:44.201Z,100521.31
2023-11-08T00:48:10.800Z,100512.00
2023-11-08T00:50:43.185Z,100521.53
2023-11-08T00:53:14.741Z,100522.53
2023-11-08T00:55:41.373Z,100543.69
2023-11-08T00:58:11.525Z,100522.53
2023-11-08T01:00:40.728Z,100531.41
2023-11-08T01:03:07.357Z,100487.75
2023-11-08T01:05:33.940Z,100508.41
2023-11-08T01:08:02.980Z,100498.44
2023-11-08T01:10:29.441Z,100475.63
2023-11-08T01:12:56.641Z,100499.91
2023-11-08T01:15:23.110Z,100513.94
2023-11-08T01:17:49.669Z,100537.97
2023-11-08T01:20:16.161Z,100528.50
2023-11-08T01:22:42.558Z,100503.97
2023-11-08T01:25:12.800Z,100473.94
2023-11-08T01:27:59.657Z,100493.09
2023-11-08T01:30:26.345Z,100495.00
2023-11-08T01:33:02.109Z,100455.50
2023-11-08T01:35:28.531Z,100512.63
2023-11-08T01:38:00.473Z,100482.09
2023-11-08T01:40:27.091Z,100514.97
2023-11-08T01:42:56.724Z,100472.25
2023-11-08T01:45:23.332Z,100507.06
2023-11-08T01:48:13.272Z,100478.16
2023-11-08T01:50:54.791Z,100494.53
2023-11-08T01:53:21.863Z,100467.94
2023-11-08T01:55:48.436Z,100502.09
2023-11-08T01:58:20.651Z,100479.56
2023-11-08T02:00:50.531Z,100527.22
2023-11-08T02:03:20.394Z,100528.91
2023-11-08T02:05:46.864Z,100526.75
2023-11-08T02:08:16.393Z,100513.41
2023-11-08T02:11:13.201Z,100543.34
2023-11-08T02:13:29.957Z,100547.78
2023-11-08T02:15:56.461Z,100551.75
2023-11-08T02:18:27.209Z,100547.69
2023-11-08T02:20:54.294Z,100543.13
2023-11-08T02:23:26.529Z,100555.84
2023-11-08T02:26:02.900Z,100536.78
2023-11-08T02:28:29.377Z,100557.44
2023-11-08T02:30:56.692Z,100554.09
2023-11-08T02:33:28.016Z,100573.06
2023-11-08T02:35:55.142Z,100520.03
2023-11-08T02:38:24.510Z,100554.50
2023-11-08T02:40:55.922Z,100567.78
2023-11-08T02:43:22.861Z,100528.75
2023-11-08T02:45:51.351Z,100579.06
2023-11-08T02:48:23.452Z,100547.81
2023-11-08T02:50:51.760Z,100533.69
2023-11-08T02:53:18.350Z,100529.78
2023-11-08T02:55:44.753Z,100576.72
2023-11-08T02:58:11.261Z,100586.66
2023-11-08T03:00:41.775Z,100583.25
2023-11-08T03:03:10.968Z,100565.91
2023-11-08T03:05:37.493Z,100597.69
2023-11-08T03:08:04.284Z,100575.50
2023-11-08T03:10:35.366Z,100585.31
2023-11-08T03:13:05.660Z,100608.47
2023-11-08T03:15:32.627Z,100584.69
2023-11-08T03:18:04.732Z,100576.88
2023-11-08T03:20:31.242Z,100578.47
2023-11-08T03:22:57.736Z,100621.63
2023-11-08T03:25:26.284Z,100624.69
2023-11-08T03:27:52.819Z,100649.13
2023-11-08T03:30:19.283Z,100662.13
2023-11-08T03:32:46.169Z,100669.25
2023-11-08T03:35:13.362Z,100638.34
2023-11-08T03:37:45.585Z,100649.03
2023-11-08T03:40:14.483Z,100675.38
2023-11-08T03:42:46.699Z,100641.47
2023-11-08T03:45:21.730Z,100658.25
2023-11-08T03:47:49.350Z,100645.63
2023-11-08T03:50:15.850Z,100659.22
2023-11-08T03:52:42.412Z,100633.81
2023-11-08T03:55:12.693Z,100659.56
2023-11-08T03:57:42.188Z,100612.66
2023-11-08T04:00:14.270Z,100642.94
2023-11-08T04:02:43.661Z,100621.69
2023-11-08T04:05:12.885Z,100607.38
2023-11-08T04:07:42.394Z,100604.47
2023-11-08T04:10:15.067Z,100604.84
2023-11-08T04:12:41.879Z,100588.13
2023-11-08T04:15:25.212Z,100636.44
2023-11-08T04:17:51.794Z,100576.25
2023-11-08T04:20:18.410Z,100602.63
2023-11-08T04:22:51.258Z,100604.41
2023-11-08T04:25:17.632Z,100601.09
2023-11-08T04:27:50.148Z,100598.16
2023-11-08T04:30:16.937Z,100574.03
2023-11-08T04:32:43.456Z,100571.81
2023-11-08T04:35:19.185Z,100565.38
2023-11-08T04:37:45.650Z,100535.38
2023-11-08T04:40:12.307Z,100535.22
2023-11-08T04:42:42.383Z,100514.44
2023-11-08T04:45:11.544Z,100513.13
2023-11-08T04:47:37.967Z,100527.47
2023-11-08T04:50:04.720Z,100503.44
2023-11-08T04:52:31.216Z,100487.53
2023-11-08T04:54:59.231Z,100510.31
2023-11-08T04:57:25.714Z,100496.34
2023-11-08T04:59:52.601Z,100487.66
2023-11-08T05:02:24.135Z,100487.44
2023-11-08T05:04:50.982Z,100509.03
2023-11-08T05:07:18.072Z,100497.88
2023-11-08T05:09:45.138Z,100492.59
2023-11-08T05:12:12.596Z,100469.34
2023-11-08T05:14:41.385Z,100510.63
2023-11-08T05:17:07.892Z,100490.84
2023-11-08T05:19:37.307Z,100482.31
2023-11-08T05:22:06.327Z,100480.44
2023-11-08T05:24:32.782Z,100483.09
2023-11-08T05:26:59.218Z,100527.84
2023-11-08T05:29:28.400Z,100518.88
2023-11-08T05:31:54.784Z,100491.81
2023-11-08T05:34:23.567Z,100520.38
2023-11-08T05:36:55.874Z,100494.19
2023-11-08T05:39:26.571Z,100547.38
2023-11-08T05:41:56.476Z,100529.31
2023-11-08T05:44:36.285Z,100538.66
2023-11-08T05:47:02.971Z,100537.03
2023-11-08T05:49:29.459Z,100514.53
2023-11-08T05:52:01.706Z,100501.91
2023-11-08T05:54:28.168Z,100490.97
2023-11-08T05:56:57.960Z,100549.75
2023-11-08T05:59:26.908Z,100545.78
2023-11-08T06:01:59.350Z,100526.66
2023-11-08T06:04:26.239Z,100533.03
2023-11-08T06:06:55.139Z,100562.38
2023-11-08T06:09:21.793Z,100519.47
2023-11-08T06:11:54.075Z,100556.31
2023-11-08T06:14:33.480Z,100532.38
2023-11-08T06:16:59.940Z,100544.34
2023-11-08T06:19:26.627Z,100575.31
2023-11-08T06:21:54.403Z,100583.25
2023-11-08T06:24:20.985Z,100571.53
2023-11-08T06:26:47.516Z,100567.78
2023-11-08T06:29:14.060Z,100561.75
2023-11-08T06:31:48.025Z,100555.09
2023-11-08T06:34:17.810Z,100593.63
2023-11-08T06:36:44.635Z,100625.06
2023-11-08T06:39:15.419Z,100588.09
2023-11-08T06:41:44.351Z,100614.84
2023-11-08T06:44:10.798Z,100601.25
2023-11-08T06:46:53.518Z,100651.81
2023-11-08T06:49:21.115Z,100600.56
2023-11-08T06:51:48.963Z,100657.44
2023-11-08T06:54:15.544Z,100650.53
2023-11-08T06:56:54.384Z,100674.59
2023-11-08T06:59:20.815Z,100668.41
2023-11-08T07:01:48.986Z,100684.63
2023-11-08T07:04:16.924Z,100667.63
2023-11-08T07:06:43.735Z,100648.97
2023-11-08T07:09:17.359Z,100667.56
2023-11-08T07:11:43.875Z,100670.31
2023-11-08T07:14:12.367Z,100702.38
2023-11-08T07:16:43.452Z,100704.44
2023-11-08T07:19:17.333Z,100703.78
2023-11-08T07:21:43.938Z,100743.88
2023-11-08T07:24:11.383Z,100757.91
2023-11-08T07:26:39.673Z,100755.78
2023-11-08T07:29:06.141Z,100794.88
2023-11-08T07:31:35.677Z,100777.56
2023-11-08T07:34:02.175Z,100809.06
2023-11-08T07:36:28.646Z,100824.16
2023-11-08T07:38:55.175Z,100837.09
2023-11-08T07:41:21.667Z,100838.53
2023-11-08T07:43:48.626Z,100874.53
2023-11-08T07:46:15.113Z,100880.97
2023-11-08T07:48:55.840Z,100909.78
2023-11-08T07:51:25.989Z,100921.84
2023-11-08T07:53:55.429Z,100948.81
2023-11-08T07:56:22.153Z,100914.09
2023-11-08T07:58:48.657Z,100931.09
2023-11-08T08:01:21.988Z,100985.09
2023-11-08T08:03:49.523Z,100977.41
2023-11-08T08:06:17.210Z,101017.75
2023-11-08T08:08:44.033Z,101029.16
2023-11-08T08:11:14.623Z,101024.44
2023-11-08T08:13:44.372Z,101036.09
2023-11-08T08:16:10.907Z,101058.56
2023-11-08T08:18:41.865Z,101084.53
2023-11-08T08:21:10.666Z,101046.03
2023-11-08T08:23:37.267Z,101094.63
2023-11-08T08:26:05.640Z,101096.78
2023-11-08T08:28:34.835Z,101102.97
2023-11-08T08:31:09.550Z,101113.06
2023-11-08T08:33:37.621Z,101114.00
2023-11-08T08:36:05.781Z,101101.78
2023-11-08T08:38:32.466Z,101124.22
2023-11-08T08:40:58.930Z,101127.34
2023-11-08T08:43:27.882Z,101128.44
2023-11-08T08:45:54.303Z,101171.59
2023-11-08T08:48:20.766Z,101178.53
2023-11-08T08:50:47.263Z,101203.69
2023-11-08T08:53:13.798Z,101165.34
2023-11-08T08:55:43.730Z,101198.41
2023-11-08T08:58:13.031Z,101217.19
2023-11-08T09:00:48.622Z,101250.88
2023-11-08T09:03:16.858Z,101252.25
2023-11-08T09:05:44.501Z,101250.47
2023-11-08T09:08:11.023Z,101256.56
2023-11-08T09:10:37.553Z,101270.63
2023-11-08T09:13:06.984Z,101260.00
2023-11-08T09:15:37.062Z,101283.75
2023-11-08T09:18:03.559Z,101297.44
2023-11-08T09:20:30.148Z,101306.25
2023-11-08T09:22:56.667Z,101322.84
2023-11-08T09:25:23.035Z,101349.09
2023-11-08T09:27:59.887Z,101346.91
2023-11-08T09:30:26.976Z,101348.53
2023-11-08T09:32:53.513Z,101359.09
2023-11-08T09:35:25.659Z,101374.66
2023-11-08T09:37:57.888Z,101337.63
2023-11-08T09:40:24.684Z,101385.19
2023-11-08T09:42:51.224Z,101360.44
2023-11-08T09:45:22.811Z,101380.78
2023-11-08T09:47:50.599Z,101384.38
2023-11-08T09:50:20.459Z,101400.16
2023-11-08T09:52:51.071Z,101421.88
2023-11-08T09:55:40.621Z,101417.78
2023-11-08T09:58:10.872Z,101421.47
2023-11-08T10:00:37.985Z,101375.47
2023-11-08T10:03:20.199Z,101404.72
2023-11-08T10:05:47.042Z,101409.13
2023-11-08T10:08:13.722Z,101405.19
2023-11-08T10:10:46.763Z,101418.22
2023-11-08T10:13:13.336Z,101456.94
2023-11-08T10:15:41.506Z,101442.63
2023-11-08T10:19:32.938Z,101483.06
2023-11-08T10:21:05.753Z,101475.38
2023-11-08T10:23:36.291Z,101463.53
2023-11-08T10:26:15.470Z,101487.16
2023-11-08T10:29:00.874Z,101489.09
2023-11-08T10:31:41.105Z,101497.66
2023-11-08T10:34:17.593Z,101476.66
2023-11-08T10:36:44.196Z,101473.16
2023-11-08T10:39:14.068Z,101468.34
2023-11-08T10:41:48.996Z,101476.09
2023-11-08T10:44:20.905Z,101446.69
2023-11-08T10:46:56.692Z,101447.78
2023-11-08T10:49:26.403Z,101463.31
2023-11-08T10:51:52.928Z,101465.16
2023-11-08T10:54:19.696Z,101468.28
2023-11-08T10:56:47.130Z,101469.66
2023-11-08T10:59:21.742Z,101482.66
2023-11-08T11:01:51.448Z,101469.44
2023-11-08T11:04:22.172Z,101423.06
2023-11-08T11:06:54.319Z,101435.72
2023-11-08T11:09:23.586Z,101441.34
2023-11-08T11:12:00.040Z,101406.50
2023-11-08T11:17:26.812Z,101434.91
2023-11-08T11:19:58.683Z,101413.09
2023-11-08T11:22:25.260Z,101409.19
2023-11-08T11:24:51.700Z,101413.63
2023-11-08T11:27:34.788Z,101429.50
2023-11-08T11:30:19.438Z,101438.19
2023-11-08T11:32:51.697Z,101457.66
2023-11-08T11:35:41.500Z,101470.94
2023-11-08T11:38:07.916Z,101535.31
2023-11-08T11:40:35.288Z,101554.94
2023-11-08T11:43:01.758Z,101550.50
2023-11-08T11:45:32.279Z,101553.22
2023-11-08T11:47:58.783Z,101523.41
2023-11-08T11:50:33.696Z,101507.06
2023-11-08T11:53:05.037Z,101496.59
2023-11-08T11:55:34.423Z,101480.81
2023-11-08T11:58:04.294Z,101519.53
2023-11-08T12:00:32.004Z,101479.09
2023-11-08T12:02:59.722Z,101496.66
2023-11-08T12:08:06.864Z,101505.69
2023-11-08T12:10:33.255Z,101490.66
2023-11-08T12:12:59.713Z,101507.47
2023-11-08T12:15:31.601Z,101497.50
2023-11-08T12:18:01.183Z,101507.84
2023-11-08T12:20:30.394Z,101470.09
2023-11-08T12:22:58.082Z,101469.06
2023-11-08T12:25:27.200Z,101482.16
2023-11-08T12:27:57.522Z,101477.31
2023-11-08T12:30:25.568Z,101485.31
2023-11-08T12:32:52.246Z,101498.31
2023-11-08T12:35:18.777Z,101498.91
2023-11-08T12:37:50.094Z,101502.31
2023-11-08T12:40:21.068Z,101503.50
2023-11-08T12:42:50.010Z,101497.94
2023-11-08T12:46:34.156Z,101498.84
2023-11-08T12:48:20.471Z,101486.75
2023-11-08T12:50:50.181Z,101493.69
2023-11-08T12:53:18.828Z,101492.31
2023-11-08T12:55:53.411Z,101474.22
2023-11-08T12:58:30.535Z,101480.72
2023-11-08T13:01:01.336Z,101447.97
2023-11-08T13:03:34.100Z,101479.50
2023-11-08T13:06:03.160Z,101481.28
2023-11-08T13:08:36.025Z,101477.78
2023-11-08T13:11:02.607Z,101455.41
2023-11-08T13:13:29.205Z,101435.00
2023-11-08T13:15:56.434Z,101410.41
2023-11-08T13:18:29.212Z,101439.16
2023-11-08T13:20:55.745Z,101424.81
2023-11-08T13:24:00.322Z,101406.34
2023-11-08T13:26:11.451Z,101410.91
2023-11-08T13:28:40.704Z,101412.41
2023-11-08T13:31:12.242Z,101368.69
2023-11-08T13:33:45.022Z,101361.38
2023-11-08T13:36:11.776Z,101387.16
2023-11-08T13:38:41.093Z,101374.28
2023-11-08T13:41:10.705Z,101374.28
2023-11-08T13:44:00.175Z,101358.41
2023-11-08T13:46:24.464Z,101355.75
2023-11-08T13:48:51.047Z,101360.63
2023-11-08T13:51:17.689Z,101335.38
2023-11-08T13:56:36.956Z,101292.84
2023-11-08T13:59:03.595Z,101272.03
2023-11-08T14:01:29.996Z,101278.31
2023-11-08T14:03:56.482Z,101291.72
2023-11-08T14:06:23.009Z,101285.63
2023-11-08T14:08:52.653Z,101276.72
2023-11-08T14:11:22.567Z,101249.03
2023-11-08T14:13:49.126Z,101243.75
2023-11-08T14:16:15.732Z,101219.94
2023-11-08T14:18:42.620Z,101218.41
2023-11-08T14:21:11.926Z,101183.00
2023-11-08T14:23:44.949Z,101147.97
2023-11-08T14:26:13.511Z,101177.56
2023-11-08T14:28:42.964Z,101151.47
2023-11-08T14:31:12.559Z,101145.19
2023-11-08T14:33:46.803Z,101123.56
2023-11-08T14:36:19.157Z,101107.16
2023-11-08T14:38:45.612Z,101089.69
2023-11-08T14:41:12.058Z,101083.25
2023-11-08T14:43:41.362Z,101072.16
2023-11-08T14:46:08.220Z,101078.28
2023-11-08T14:48:34.877Z,101048.91
2023-11-08T14:51:01.915Z,101043.97
2023-11-08T14:53:28.915Z,101016.94
2023-11-08T14:55:55.599Z,101003.59
2023-11-08T14:58:23.488Z,101011.84
2023-11-08T15:00:50.220Z,101001.78
2023-11-08T15:03:17.048Z,101004.56
2023-11-08T15:05:48.996Z,100982.28
2023-11-08T15:09:49.520Z,100947.56
2023-11-08T15:11:04.965Z,100900.94
2023-11-08T15:13:31.614Z,100897.47
2023-11-08T15:15:58.154Z,100912.22
2023-11-08T15:18:24.785Z,100881.78
2023-11-08T15:20:54.664Z,100870.00
2023-11-08T15:23:21.346Z,100883.13
2023-11-08T15:25:50.590Z,100870.47
2023-11-08T15:28:17.159Z,100876.53
2023-11-08T15:30:45.623Z,100876.88
2023-11-08T15:33:15.212Z,100852.50
2023-11-08T15:35:41.961Z,100836.22
2023-11-08T15:38:10.504Z,100858.00
2023-11-08T15:40:37.124Z,100828.81
2023-11-08T15:43:04.005Z,100840.66
2023-11-08T15:45:36.187Z,100847.63
2023-11-08T15:48:02.775Z,100852.72
2023-11-08T15:50:29.476Z,100844.88
2023-11-08T15:52:58.513Z,100862.97
2023-11-08T15:55:28.132Z,100836.38
2023-11-08T15:57:54.795Z,100851.22
2023-11-08T16:00:21.310Z,100796.31
2023-11-08T16:02:52.224Z,100776.22
2023-11-08T16:05:18.894Z,100763.19
2023-11-08T16:07:45.532Z,100782.38
2023-11-08T16:10:14.181Z,100730.91
2023-11-08T16:12:43.648Z,100743.53
2023-11-08T16:15:14.180Z,100670.97
2023-11-08T16:17:50.645Z,100647.44
2023-11-08T16:20:17.145Z,100625.53
2023-11-08T16:22:43.569Z,100637.81
2023-11-08T16:25:15.482Z,100598.72
2023-11-08T16:27:41.990Z,100615.50
2023-11-08T16:30:59.732Z,100546.19
2023-11-08T16:33:18.666Z,100529.53
2023-11-08T16:35:45.542Z,100527.47
2023-11-08T16:38:20.954Z,100508.78
2023-11-08T16:40:56.120Z,100476.50
2023-11-08T16:45:58.524Z,100449.06
2023-11-08T16:48:25.096Z,100479.81
2023-11-08T16:50:54.882Z,100405.03
2023-11-08T16:53:21.490Z,100398.50
2023-11-08T16:55:50.804Z,100377.09
2023-11-08T16:58:22.838Z,100376.06
2023-11-08T17:00:51.867Z,100336.22
2023-11-08T17:03:20.541Z,100300.09
2023-11-08T17:05:47.446Z,100296.69
2023-11-08T17:08:16.874Z,100299.38
2023-11-08T17:10:46.608Z,100265.56
2023-11-08T17:13:13.052Z,100278.56
2023-11-08T17:15:42.276Z,100261.41
2023-11-08T17:18:21.243Z,100278.81
2023-11-08T17:20:47.736Z,100249.81
2023-11-08T17:23:18.179Z,100215.75
2023-11-08T17:25:44.666Z,100247.19
2023-11-08T17:28:16.823Z,100217.91
2023-11-08T17:30:49.495Z,100191.78
2023-11-08T17:33:15.892Z,100200.75
2023-11-08T17:38:22.672Z,100168.84
2023-11-08T17:40:51.811Z,100154.88
2023-11-08T17:43:21.475Z,100161.19
2023-11-08T17:45:53.483Z,100150.41
2023-11-08T17:48:19.866Z,100142.25
2023-11-08T17:50:49.267Z,100115.06
2023-11-08T17:53:18.407Z,100099.50
2023-11-08T17:55:47.358Z,100076.28
2023-11-08T17:58:19.257Z,100084.50
2023-11-08T18:00:46.495Z,100102.41
2023-11-08T18:03:18.616Z,100063.38
2023-11-08T18:05:48.001Z,100048.34
2023-11-08T18:08:14.649Z,100056.00
2023-11-08T18:10:41.079Z,100030.16
2023-11-08T18:13:35.661Z,100027.53
2023-11-08T18:16:00.706Z,99996.97
2023-11-08T18:18:29.654Z,99979.53
2023-11-08T18:20:56.558Z,99969.25
2023-11-08T18:23:23.285Z,99977.13
2023-11-08T18:25:49.691Z,99948.44
2023-11-08T18:28:19.133Z,99970.25
2023-11-08T18:30:45.747Z,99961.31
2023-11-08T18:33:40.023Z,99959.13
2023-11-08T18:36:06.942Z,99937.22
2023-11-08T18:38:34.591Z,99913.53
2023-11-08T18:41:03.429Z,99913.81
2023-11-08T18:43:32.809Z,99916.69
2023-11-08T18:46:00.608Z,99898.25
2023-11-08T18:48:34.874Z,99878.47
2023-11-08T18:51:03.311Z,99892.94
2023-11-08T18:53:37.233Z,99879.50
2023-11-08T18:56:10.297Z,99848.16
2023-11-08T18:58:37.458Z,99898.41
2023-11-08T19:01:14.489Z,99872.06
2023-11-08T19:03:41.328Z,99869.91
2023-11-08T19:06:11.951Z,99879.13
2023-11-08T19:08:42.576Z,99834.38
2023-11-08T19:11:11.489Z,99835.44
2023-11-08T19:13:37.999Z,99839.09
2023-11-08T19:16:07.587Z,99867.16
2023-11-08T19:18:35.875Z,99824.84
2023-11-08T19:21:03.940Z,99860.56
2023-11-08T19:23:30.512Z,99808.50
2023-11-08T19:25:57.337Z,99807.97
2023-11-08T19:28:27.673Z,99809.47
2023-11-08T19:30:54.545Z,99819.44
2023-11-08T19:33:21.190Z,99827.28
2023-11-08T19:35:48.110Z,99798.88
2023-11-08T19:38:17.602Z,99809.66
2023-11-08T19:40:44.087Z,99778.59
2023-11-08T19:43:36.907Z,99789.31
2023-11-08T19:46:05.651Z,99777.94
2023-11-08T19:48:32.249Z,99735.06
2023-11-08T19:51:02.821Z,99755.53
2023-11-08T19:53:31.833Z,99778.63
2023-11-08T19:56:00.300Z,99746.03
2023-11-08T19:58:29.475Z,99744.22
2023-11-08T20:00:58.468Z,99753.34
2023-11-08T20:03:25.046Z,99743.56
2023-11-08T20:05:54.121Z,99733.38
2023-11-08T20:08:27.019Z,99726.22
2023-11-08T20:10:58.642Z,99728.34
2023-11-08T20:13:28.001Z,99724.34
2023-11-08T20:16:13.155Z,99746.13
2023-11-08T20:18:42.594Z,99719.25
2023-11-08T20:21:13.455Z,99731.94
2023-11-08T20:23:42.603Z,99749.72
2023-11-08T20:26:14.574Z,99743.38
2023-11-08T20:28:43.962Z,99726.59
2023-11-08T20:31:13.636Z,99725.44
2023-11-08T20:33:43.707Z,99731.47
2023-11-08T20:36:13.047Z,99718.88
2023-11-08T20:38:44.980Z,99704.38
2023-11-08T20:41:11.426Z,99740.41
2023-11-08T20:43:37.976Z,99690.50
2023-11-08T20:46:07.981Z,99688.66
2023-11-08T20:48:34.867Z,99703.31
2023-11-08T20:51:03.923Z,99683.59
2023-11-08T20:53:43.178Z,99668.84
2023-11-08T20:56:11.305Z,99712.94
2023-11-08T20:58:52.243Z,99707.84
2023-11-08T21:01:28.624Z,99667.19
2023-11-08T21:03:55.174Z,99679.19
2023-11-08T21:06:21.694Z,99650.72
2023-11-08T21:08:48.175Z,99668.81
2023-11-08T21:11:14.946Z,99641.56
2023-11-08T21:13:42.640Z,99657.75
2023-11-08T21:16:11.556Z,99634.41
2023-11-08T21:18:40.318Z,99654.72
2023-11-08T21:21:06.715Z,99666.28
2023-11-08T21:23:35.013Z,99635.50
2023-11-08T21:26:12.163Z,99635.28
2023-11-08T21:28:41.219Z,99620.63
2023-11-08T21:31:18.049Z,99597.56
2023-11-08T21:33:47.299Z,99592.28
2023-11-08T21:36:16.554Z,99624.50
2023-11-08T21:38:46.213Z,99607.94
2023-11-08T21:41:12.657Z,99601.81
2023-11-08T21:43:42.460Z,99602.59
2023-11-08T21:46:11.678Z,99575.91
2023-11-08T21:48:40.053Z,99584.03
2023-11-08T21:51:16.990Z,99578.13
2023-11-08T21:53:46.728Z,99554.25
2023-11-08T21:56:13.196Z,99563.75
2023-11-08T21:58:44.935Z,99567.59
2023-11-08T22:01:11.533Z,99580.13
2023-11-08T22:03:43.697Z,99572.09
2023-11-08T22:06:13.564Z,99553.47
2023-11-08T22:09:21.533Z,99549.19
2023-11-08T22:11:50.915Z,99558.28
2023-11-08T22:14:17.882Z,99574.41
2023-11-08T22:16:44.513Z,99567.63
2023-11-08T22:19:10.993Z,99569.75
2023-11-08T22:21:45.892Z,99563.31
2023-11-08T22:24:21.902Z,99582.56
2023-11-08T22:26:48.408Z,99534.00
2023-11-08T22:29:14.913Z,99581.19
2023-11-08T22:31:44.251Z,99538.13
2023-11-08T22:34:11.074Z,99566.34
2023-11-08T22:36:41.849Z,99550.41
2023-11-08T22:39:17.364Z,99549.97
2023-11-08T22:42:02.110Z,99566.34
2023-11-08T22:44:28.539Z,99546.06
2023-11-08T22:49:44.637Z,99534.78
2023-11-08T22:52:11.866Z,99552.13
2023-11-08T22:54:46.155Z,99536.84
2023-11-08T22:57:15.080Z,99547.56
2023-11-08T22:59:43.827Z,99530.00
2023-11-08T23:02:13.155Z,99514.13
2023-11-08T23:04:43.518Z,99505.00
2023-11-08T23:07:12.942Z,99525.13
2023-11-08T23:09:51.707Z,99497.06
2023-11-08T23:12:23.773Z,99519.75
2023-11-08T23:14:52.758Z,99525.25
2023-11-08T23:17:25.169Z,99493.38
2023-11-08T23:19:51.671Z,99507.69
2023-11-08T23:22:24.305Z,99516.06
2023-11-08T23:24:54.289Z,99494.56
2023-11-08T23:30:05.629Z,99472.00
2023-11-08T23:32:32.144Z,99492.63
2023-11-08T23:34:58.700Z,99470.06
2023-11-08T23:37:25.245Z,99464.78
2023-11-08T23:39:55.941Z,99485.78
2023-11-08T23:42:23.089Z,99483.22
2023-11-08T23:44:49.631Z,99496.69
2023-11-08T23:47:16.049Z,99487.75
2023-11-08T23:49:55.026Z,99469.22
2023-11-08T23:52:35.711Z,99487.50
2023-11-08T23:55:02.226Z,99501.09
2023-11-08T23:57:28.677Z,99485.81
2023-11-08T23:59:57.460Z,99473.56
